Time;durP1;ratioP1;P1;durP2;ratioP2;P2;SDS_P1;SDS_P2;PMS_P1;PMS_P2;Temp;Humidity;BMP_temperature;BMP_pressure;BME280_temperature;BME280_humidity;BME280_pressure;Samples;Min_cycle;Max_cycle;Signal;HPM_P1;HPM_P2
2021/08/08 00:02:14;;;;;;;1.30;1.07;;;;;;;12.75;90.84;96006.81;3592732;39;21156;-73
2021/08/08 00:04:43;;;;;;;5.10;0.90;;;;;;;12.78;90.32;96011.81;3592551;39;20681;-72
2021/08/08 00:07:10;;;;;;;2.87;1.10;;;;;;;12.85;89.67;96001.59;3591330;39;20451;-74
2021/08/08 00:09:39;;;;;;;2.73;1.00;;;;;;;12.81;89.28;96008.91;3592839;39;20551;-74
2021/08/08 00:12:08;;;;;;;3.93;0.77;;;;;;;12.79;90.08;96012.63;3593812;39;20738;-74
2021/08/08 00:14:37;;;;;;;3.53;1.07;;;;;;;12.75;90.18;96011.25;3592529;39;20472;-74
2021/08/08 00:17:05;;;;;;;2.10;0.83;;;;;;;12.73;90.17;96008.75;3592560;39;20479;-76
2021/08/08 00:19:33;;;;;;;3.80;0.87;;;;;;;12.72;89.29;96001.84;3592216;39;20839;-74
2021/08/08 00:22:01;;;;;;;1.90;0.80;;;;;;;12.73;90.61;96007.91;3593937;39;20473;-74
2021/08/08 00:24:29;;;;;;;1.43;0.80;;;;;;;12.72;90.33;96017.59;3592639;39;20461;-74
2021/08/08 00:26:57;;;;;;;1.10;0.80;;;;;;;12.72;90.24;96017.59;3592155;39;20457;-74
2021/08/08 00:29:26;;;;;;;2.13;1.00;;;;;;;12.72;90.58;96007.09;3590282;39;21172;-74
2021/08/08 00:31:54;;;;;;;1.90;0.97;;;;;;;12.75;90.31;96008.63;3581237;39;20919;-74
2021/08/08 00:34:22;;;;;;;2.20;0.70;;;;;;;12.68;90.74;96010.94;3590715;39;20475;-76
2021/08/08 00:36:50;;;;;;;2.80;1.20;;;;;;;12.70;90.88;96018.69;3591273;39;20561;-76
2021/08/08 00:39:20;;;;;;;2.03;0.70;;;;;;;12.65;91.00;96019.09;3590984;39;20826;-76
2021/08/08 00:41:48;;;;;;;0.90;0.70;;;;;;;12.62;91.23;96011.47;3590696;39;20547;-74
2021/08/08 00:44:16;;;;;;;1.00;0.60;;;;;;;12.61;91.32;96012.44;3591258;39;20807;-73
2021/08/08 00:46:46;;;;;;;3.07;0.80;;;;;;;12.61;91.19;96012.44;3591909;39;20943;-73
2021/08/08 00:49:13;;;;;;;2.73;0.93;;;;;;;12.61;91.46;96025.56;3592843;39;20464;-73
2021/08/08 00:51:42;;;;;;;2.33;0.90;;;;;;;12.59;91.26;96014.38;3594282;39;21178;-73
2021/08/08 00:54:10;;;;;;;1.30;0.77;;;;;;;12.66;90.82;96021.59;3591539;39;21082;-73
2021/08/08 00:56:38;;;;;;;2.43;1.20;;;;;;;12.70;90.49;96027.41;3590588;39;20752;-72
2021/08/08 00:59:06;;;;;;;3.50;0.80;;;;;;;12.63;90.70;96021.03;3588450;39;20903;-74
2021/08/08 01:01:40;;;;;;;4.70;1.03;;;;;;;12.65;90.22;96026.97;3590609;39;21024;-72
2021/08/08 01:04:11;;;;;;;2.03;0.90;;;;;;;12.70;89.80;96032.66;3591446;39;20470;-72
2021/08/08 01:06:43;;;;;;;6.50;1.10;;;;;;;12.83;89.24;96033.25;3593255;39;20467;-76
2021/08/08 01:09:14;;;;;;;1.53;0.77;;;;;;;12.86;87.98;96030.38;3591188;39;20461;-74
2021/08/08 01:11:43;;;;;;;2.23;0.90;;;;;;;13.00;87.97;96030.97;3591902;39;20752;-71
2021/08/08 01:14:12;;;;;;;5.33;0.80;;;;;;;12.88;87.78;96016.25;3592043;39;20474;-73
2021/08/08 01:16:43;;;;;;;5.70;0.90;;;;;;;12.91;88.04;96037.00;3591878;39;20955;-72
2021/08/08 01:19:17;;;;;;;4.50;1.10;;;;;;;12.98;88.23;96038.16;3590656;39;20785;-73
2021/08/08 01:21:47;;;;;;;7.80;1.30;;;;;;;13.01;87.19;96048.38;3591109;39;20443;-72
2021/08/08 01:24:17;;;;;;;2.40;0.80;;;;;;;13.05;87.30;96047.16;3590810;39;20459;-73
2021/08/08 01:26:46;;;;;;;7.50;1.00;;;;;;;13.00;88.21;96049.38;3593561;39;20532;-72
2021/08/08 01:29:15;;;;;;;5.60;0.80;;;;;;;12.97;88.16;96049.63;3592925;39;20784;-75
2021/08/08 01:31:50;;;;;;;12.23;1.73;;;;;;;13.08;87.30;96044.25;3590064;39;20863;-74
2021/08/08 01:34:18;;;;;;;1.20;0.70;;;;;;;13.01;88.10;96053.63;3592287;39;20575;-73
2021/08/08 01:36:47;;;;;;;4.27;0.93;;;;;;;12.84;89.17;96055.94;3592292;39;20495;-75
2021/08/08 01:39:20;;;;;;;2.07;0.80;;;;;;;12.79;89.10;96050.25;3590298;39;20711;-75
2021/08/08 01:41:52;;;;;;;6.33;0.90;;;;;;;12.78;89.40;96053.84;3589756;39;20532;-73
2021/08/08 01:44:21;;;;;;;6.27;0.80;;;;;;;12.71;89.70;96051.88;3591642;39;20880;-75
2021/08/08 01:46:53;;;;;;;4.10;1.00;;;;;;;12.38;91.41;96052.00;3591758;39;20827;-73
2021/08/08 01:49:25;;;;;;;2.80;0.80;;;;;;;12.42;91.57;96060.44;3594371;39;20439;-74
2021/08/08 01:51:53;;;;;;;3.03;1.20;;;;;;;12.28;91.74;96058.97;3592898;39;20674;-73
2021/08/08 01:54:24;;;;;;;1.83;0.77;;;;;;;12.31;91.40;96060.50;3591338;39;20701;-73
2021/08/08 01:56:52;;;;;;;1.70;0.87;;;;;;;12.35;91.06;96067.16;3590410;39;20826;-72
2021/08/08 01:59:21;;;;;;;3.17;1.00;;;;;;;12.35;91.03;96067.16;3590673;39;20481;-73
2021/08/08 02:01:49;;;;;;;7.03;0.80;;;;;;;12.33;90.91;96064.69;3589547;39;20704;-73
2021/08/08 02:04:19;;;;;;;3.13;0.97;;;;;;;12.40;90.56;96065.81;3587562;39;21106;-74
2021/08/08 02:06:47;;;;;;;7.13;0.87;;;;;;;12.52;90.04;96061.31;3587973;39;20447;-73
2021/08/08 02:09:15;;;;;;;6.30;1.00;;;;;;;12.49;89.81;96063.41;3590830;39;21097;-73
2021/08/08 02:11:45;;;;;;;10.03;0.90;;;;;;;12.43;90.08;96060.31;3588796;39;20480;-73
2021/08/08 02:14:13;;;;;;;2.27;0.63;;;;;;;12.41;90.43;96067.50;3581745;39;20542;-73
2021/08/08 02:16:41;;;;;;;2.50;0.80;;;;;;;12.40;90.43;96051.88;3592937;39;20427;-73
2021/08/08 02:19:09;;;;;;;4.77;0.87;;;;;;;12.47;90.23;96060.91;3588918;39;21011;-73
2021/08/08 02:21:38;;;;;;;2.50;0.77;;;;;;;12.32;90.90;96068.25;3592304;39;20834;-73
2021/08/08 02:24:06;;;;;;;6.00;1.23;;;;;;;12.34;90.56;96068.97;3591729;39;20496;-74
2021/08/08 02:26:34;;;;;;;3.07;0.83;;;;;;;12.41;90.04;96069.31;3592415;39;20454;-74
2021/08/08 02:29:03;;;;;;;4.53;0.87;;;;;;;12.43;90.18;96064.75;3593466;39;20752;-72
2021/08/08 02:31:36;;;;;;;4.40;0.90;;;;;;;12.54;89.27;96074.31;3594407;39;20766;-73
2021/08/08 02:34:04;;;;;;;2.80;0.90;;;;;;;12.54;89.21;96067.28;3583755;39;20481;-73
2021/08/08 02:36:32;;;;;;;3.73;0.83;;;;;;;12.45;89.93;96078.56;3594986;39;20781;-74
2021/08/08 02:39:00;;;;;;;6.33;0.93;;;;;;;12.41;89.65;96069.31;3594087;39;20901;-74
2021/08/08 02:41:28;;;;;;;2.93;0.90;;;;;;;12.48;89.87;96070.44;3594572;39;20750;-76
2021/08/08 02:43:57;;;;;;;2.40;1.20;;;;;;;12.45;90.22;96078.56;3593565;39;20774;-73
2021/08/08 02:46:27;;;;;;;4.00;0.80;;;;;;;12.12;89.78;96008.75;3593782;39;20962;-73
2021/08/08 02:48:55;;;;;;;2.93;0.70;;;;;;;12.52;89.83;96068.38;3595611;39;21087;-72
2021/08/08 02:51:23;;;;;;;1.97;0.80;;;;;;;12.46;90.12;96074.97;3594649;39;20457;-73
2021/08/08 02:53:50;;;;;;;2.73;0.70;;;;;;;12.43;90.28;96083.94;3595547;39;20912;-75
2021/08/08 02:56:18;;;;;;;4.50;1.27;;;;;;;12.51;89.38;96083.31;3596988;39;20535;-74
2021/08/08 02:58:46;;;;;;;2.90;0.90;;;;;;;12.52;89.47;96082.31;3596731;39;20454;-74
2021/08/08 03:01:14;;;;;;;10.80;0.90;;;;;;;12.52;89.63;96095.47;3595803;39;20452;-74
2021/08/08 03:03:44;;;;;;;3.00;0.80;;;;;;;12.53;89.29;96098.94;3595892;39;20463;-73
2021/08/08 03:06:13;;;;;;;8.37;0.90;;;;;;;12.62;88.83;96101.63;3592553;39;20475;-75
2021/08/08 03:08:51;;;;;;;9.47;1.30;;;;;;;12.68;88.88;96109.94;3593732;39;20839;-75
2021/08/08 03:11:19;;;;;;;4.30;1.13;;;;;;;12.65;88.72;96109.22;3593161;39;20531;-72
2021/08/08 03:13:47;;;;;;;2.13;0.80;;;;;;;12.60;89.08;96107.94;3593964;39;20933;-73
2021/08/08 03:16:15;;;;;;;2.60;0.80;;;;;;;12.61;89.16;96115.69;3595761;39;20919;-73
2021/08/08 03:18:45;;;;;;;2.47;0.97;;;;;;;12.57;89.06;96116.09;3593615;39;20532;-73
2021/08/08 03:21:13;;;;;;;1.40;0.87;;;;;;;12.46;89.51;96111.75;3593342;39;21139;-74
2021/08/08 03:23:41;;;;;;;4.83;0.83;;;;;;;12.57;89.31;96116.09;3596400;39;20887;-74
2021/08/08 03:26:09;;;;;;;2.23;0.90;;;;;;;12.60;89.05;96123.72;3593493;39;20713;-74
2021/08/08 03:28:37;;;;;;;4.43;1.23;;;;;;;12.53;89.32;96118.16;3587134;39;20502;-75
2021/08/08 03:31:05;;;;;;;6.20;1.20;;;;;;;12.53;89.38;96123.41;3583124;39;20457;-74
2021/08/08 03:33:33;;;;;;;4.33;1.23;;;;;;;12.49;90.08;96126.44;3595547;39;20805;-74
2021/08/08 03:36:02;;;;;;;5.87;1.20;;;;;;;12.45;90.02;96133.72;3593909;39;20524;-74
2021/08/08 03:38:30;;;;;;;2.80;1.50;;;;;;;12.49;89.02;96135.13;3594103;39;20809;-73
2021/08/08 03:40:58;;;;;;;2.60;0.77;;;;;;;12.53;89.38;96144.41;3591175;39;20540;-74
2021/08/08 03:43:26;;;;;;;3.50;0.90;;;;;;;12.57;89.04;96137.13;3592295;39;20495;-74
2021/08/08 03:45:54;;;;;;;1.90;1.17;;;;;;;12.64;88.78;96141.72;3591299;39;20539;-75
2021/08/08 03:48:22;;;;;;;1.70;0.90;;;;;;;12.64;88.55;96152.22;3593380;39;20468;-72
2021/08/08 03:50:50;;;;;;;9.70;1.37;;;;;;;12.61;89.08;96147.22;3593561;39;20568;-72
2021/08/08 03:53:20;;;;;;;3.03;1.20;;;;;;;12.58;89.45;96144.84;3592300;39;20748;-73
2021/08/08 03:55:48;;;;;;;1.10;1.00;;;;;;;12.47;89.64;96139.69;3592513;39;20904;-74
2021/08/08 03:58:16;;;;;;;1.93;1.10;;;;;;;12.53;89.83;96160.19;3590995;39;20929;-73
2021/08/08 04:00:44;;;;;;;4.77;1.50;;;;;;;12.50;89.99;96162.22;3589723;39;20823;-73
2021/08/08 04:03:12;;;;;;;5.40;1.33;;;;;;;12.42;89.96;96161.06;3591395;39;20773;-73
2021/08/08 04:05:40;;;;;;;2.60;1.13;;;;;;;12.36;90.51;96164.19;3592281;39;20877;-75
2021/08/08 04:08:08;;;;;;;3.13;1.30;;;;;;;12.37;90.64;96168.50;3596011;39;20882;-73
2021/08/08 04:10:37;;;;;;;3.37;1.43;;;;;;;12.38;90.27;96167.53;3578814;39;20487;-73
2021/08/08 04:13:05;;;;;;;2.10;1.00;;;;;;;12.37;90.45;96176.38;3590750;39;20431;-73
2021/08/08 04:15:33;;;;;;;6.07;1.20;;;;;;;12.35;90.99;96178.28;3590583;39;20895;-73
2021/08/08 04:18:01;;;;;;;13.67;1.53;;;;;;;12.07;92.33;96172.69;3592021;39;20873;-74
2021/08/08 04:20:29;;;;;;;3.67;1.20;;;;;;;12.13;91.78;96179.19;3589492;39;20781;-74
2021/08/08 04:22:57;;;;;;;3.23;0.90;;;;;;;12.18;91.31;96181.47;3595280;39;20825;-73
2021/08/08 04:25:26;;;;;;;6.30;1.80;;;;;;;12.28;90.23;96187.63;3591659;39;20822;-73
2021/08/08 04:27:55;;;;;;;2.27;1.00;;;;;;;12.26;90.44;96189.53;3593113;39;20713;-74
2021/08/08 04:30:23;;;;;;;5.77;1.00;;;;;;;12.26;90.89;96190.38;3583751;39;20498;-73
2021/08/08 04:32:53;;;;;;;4.50;1.20;;;;;;;12.16;91.33;96193.88;3592061;39;20840;-74
2021/08/08 04:35:21;;;;;;;5.03;1.70;;;;;;;12.17;91.39;96206.91;3590850;39;20765;-76
2021/08/08 04:37:49;;;;;;;4.07;1.00;;;;;;;12.19;90.75;96202.34;3590409;39;20788;-74
2021/08/08 04:40:22;;;;;;;9.70;1.57;;;;;;;12.25;90.36;96199.22;3594026;39;20520;-73
2021/08/08 04:42:51;;;;;;;1.50;1.00;;;;;;;12.26;90.32;96194.78;3591165;39;20895;-73
2021/08/08 04:45:21;;;;;;;10.80;1.53;;;;;;;12.32;90.09;96204.78;3596489;39;20827;-75
2021/08/08 04:47:50;;;;;;;6.83;1.13;;;;;;;12.31;90.30;96197.88;3593429;39;20947;-75
2021/08/08 04:50:18;;;;;;;19.90;1.40;;;;;;;12.32;90.54;96199.53;3598023;39;20554;-73
2021/08/08 04:52:47;;;;;;;3.00;1.07;;;;;;;12.39;89.78;96203.34;3592915;39;20589;-75
2021/08/08 04:55:16;;;;;;;3.60;0.90;;;;;;;12.38;89.95;96199.03;3589591;39;20788;-74
2021/08/08 04:57:45;;;;;;;2.70;1.10;;;;;;;12.31;90.29;96197.03;3592908;39;20525;-74
2021/08/08 05:00:16;;;;;;;8.93;1.63;;;;;;;12.30;91.28;96201.47;3590105;39;20810;-73
2021/08/08 05:02:47;;;;;;;6.63;1.03;;;;;;;12.42;90.42;96205.69;3590396;39;20526;-73
2021/08/08 05:05:16;;;;;;;3.23;1.10;;;;;;;12.52;89.83;96207.56;3590578;39;20579;-74
2021/08/08 05:07:45;;;;;;;1.90;1.30;;;;;;;12.59;89.56;96201.69;3589948;39;20852;-73
2021/08/08 05:10:16;;;;;;;3.97;1.30;;;;;;;12.56;89.73;96208.97;3589472;39;20736;-72
2021/08/08 05:12:44;;;;;;;4.63;0.80;;;;;;;12.54;90.09;96216.97;3590875;39;20461;-72
2021/08/08 05:15:12;;;;;;;3.10;1.33;;;;;;;12.64;89.59;96214.44;3592805;39;21131;-72
2021/08/08 05:17:41;;;;;;;7.23;1.40;;;;;;;12.68;89.69;96209.75;3592870;39;20909;-73
2021/08/08 05:20:12;;;;;;;3.17;1.17;;;;;;;12.74;89.90;96212.72;3590261;39;20810;-73
2021/08/08 05:22:40;;;;;;;4.10;1.30;;;;;;;12.64;89.18;96209.16;3591738;39;20437;-73
2021/08/08 05:25:10;;;;;;;6.67;1.00;;;;;;;12.63;89.40;96218.84;3589951;39;20568;-73
2021/08/08 05:27:39;;;;;;;1.50;1.00;;;;;;;12.65;89.62;96221.38;3591150;39;20539;-75
2021/08/08 05:30:09;;;;;;;3.47;1.00;;;;;;;12.65;89.39;96227.44;3591111;39;20548;-72
2021/08/08 05:32:37;;;;;;;3.13;0.90;;;;;;;12.75;89.52;96227.50;3592039;39;20453;-72
2021/08/08 05:35:06;;;;;;;4.00;1.17;;;;;;;12.87;89.12;96230.91;3591861;39;20910;-73
2021/08/08 05:37:36;;;;;;;11.93;1.47;;;;;;;12.80;89.17;96241.09;3593238;39;20443;-73
2021/08/08 05:40:07;;;;;;;2.90;0.90;;;;;;;12.89;89.36;96243.91;3592670;39;20459;-74
2021/08/08 05:42:36;;;;;;;5.50;1.30;;;;;;;13.19;88.07;96245.75;3592177;39;20479;-73
2021/08/08 05:45:08;;;;;;;2.17;0.97;;;;;;;13.32;87.42;96243.78;3591606;39;21173;-73
2021/08/08 05:47:36;;;;;;;4.43;1.10;;;;;;;13.37;88.16;96240.78;3593047;39;20493;-73
2021/08/08 05:50:05;;;;;;;1.73;0.93;;;;;;;13.57;86.90;96249.56;3589043;39;20962;-74
2021/08/08 05:52:33;;;;;;;7.10;1.10;;;;;;;13.73;86.09;96238.56;3591175;39;20454;-76
2021/08/08 05:55:03;;;;;;;4.10;1.17;;;;;;;13.65;86.06;96242.66;3589809;39;20574;-73
2021/08/08 05:57:31;;;;;;;3.90;0.93;;;;;;;13.59;86.59;96243.22;3591826;39;20559;-72
2021/08/08 05:59:59;;;;;;;4.40;1.50;;;;;;;13.65;86.59;96247.94;3589490;39;20868;-73
2021/08/08 06:02:27;;;;;;;3.07;1.10;;;;;;;13.60;86.05;96237.00;3593267;39;20834;-73
2021/08/08 06:04:55;;;;;;;5.37;1.47;;;;;;;13.56;87.26;96251.34;3587468;39;20841;-73
2021/08/08 06:07:23;;;;;;;4.20;0.90;;;;;;;13.56;86.87;96242.63;3590397;39;20891;-73
2021/08/08 06:09:51;;;;;;;1.33;0.90;;;;;;;13.57;87.07;96253.03;3591012;39;20661;-75
2021/08/08 06:12:20;;;;;;;8.83;1.10;;;;;;;13.88;86.18;96242.47;3591773;39;20559;-76
2021/08/08 06:14:48;;;;;;;6.77;1.23;;;;;;;14.38;84.55;96254.75;3591035;39;20689;-77
2021/08/08 06:17:16;;;;;;;2.57;1.17;;;;;;;14.41;84.43;96255.31;3595701;39;20897;-77
2021/08/08 06:19:44;;;;;;;3.00;0.80;;;;;;;14.74;83.75;96261.19;3591328;39;20460;-76
2021/08/08 06:22:14;;;;;;;4.73;1.40;;;;;;;14.98;81.95;96265.19;3588981;39;20486;-79
2021/08/08 06:24:45;;;;;;;2.30;0.83;;;;;;;14.88;82.23;96266.97;3592432;39;20732;-78
2021/08/08 06:27:20;;;;;;;1.20;0.77;;;;;;;14.60;83.22;96261.59;3593677;39;20916;-76
2021/08/08 06:29:47;;;;;;;3.27;1.07;;;;;;;14.95;82.69;96254.91;3593649;39;20848;-75
2021/08/08 06:32:16;;;;;;;2.17;0.80;;;;;;;15.32;80.54;96259.41;3593763;39;20455;-75
2021/08/08 06:34:44;;;;;;;6.30;1.10;;;;;;;15.22;82.26;96265.53;3593140;39;20447;-75
2021/08/08 06:37:12;;;;;;;8.63;1.00;;;;;;;15.53;80.26;96267.97;3589169;39;20756;-75
2021/08/08 06:39:41;;;;;;;1.67;0.80;;;;;;;15.46;80.34;96271.31;3589692;39;20681;-75
2021/08/08 06:42:09;;;;;;;5.90;0.97;;;;;;;15.42;80.49;96260.22;3591990;39;20818;-75
2021/08/08 06:44:38;;;;;;;4.77;1.23;;;;;;;15.56;80.08;96267.69;3594239;39;20991;-74
2021/08/08 06:47:06;;;;;;;4.60;0.97;;;;;;;15.52;79.43;96258.38;3596631;39;20439;-75
2021/08/08 06:49:38;;;;;;;3.70;0.90;;;;;;;15.70;79.26;96258.47;3596420;39;20481;-75
2021/08/08 06:52:06;;;;;;;1.90;1.07;;;;;;;15.53;79.06;96256.59;3585681;39;20527;-75
2021/08/08 06:54:34;;;;;;;2.83;0.90;;;;;;;15.57;77.59;96235.03;3591892;39;20467;-74
2021/08/08 06:57:02;;;;;;;7.13;1.10;;;;;;;15.56;79.20;96267.69;3597071;39;20830;-75
2021/08/08 06:59:30;;;;;;;6.20;1.17;;;;;;;15.79;77.60;96267.34;3591699;39;20821;-76
2021/08/08 07:02:03;;;;;;;4.30;1.20;;;;;;;15.66;77.42;96269.44;3595907;39;20533;-76
2021/08/08 07:04:31;;;;;;;4.93;0.83;;;;;;;15.73;77.65;96274.03;3582017;39;20558;-76
2021/08/08 07:06:59;;;;;;;1.37;0.80;;;;;;;16.18;77.08;96267.97;3593285;39;20857;-76
2021/08/08 07:09:27;;;;;;;1.93;1.27;;;;;;;16.19;75.21;96269.63;3588944;39;21090;-75
2021/08/08 07:11:55;;;;;;;5.30;1.57;;;;;;;16.55;74.07;96276.78;3592515;39;20446;-76
2021/08/08 07:14:23;;;;;;;7.60;1.07;;;;;;;16.50;73.38;96271.09;3593534;39;20467;-76
2021/08/08 07:16:51;;;;;;;4.67;1.20;;;;;;;16.17;73.66;96276.03;3594021;39;20971;-77
2021/08/08 07:19:21;;;;;;;1.17;0.80;;;;;;;16.14;74.67;96274.53;3593180;39;20502;-77
2021/08/08 07:21:50;;;;;;;2.30;1.23;;;;;;;16.44;72.72;96276.97;3597098;39;20472;-77
2021/08/08 07:24:18;;;;;;;7.70;1.40;;;;;;;16.43;71.34;96277.97;3591507;39;20476;-79
2021/08/08 07:26:46;;;;;;;3.93;1.23;;;;;;;16.25;71.17;96286.72;3591320;39;20452;-79
2021/08/08 07:29:14;;;;;;;2.60;1.00;;;;;;;16.20;70.15;96270.47;3606796;22;20877;-78
2021/08/08 07:31:53;;;;;;;8.97;1.33;;;;;;;16.35;70.55;96276.91;3562849;40;20479;-78
2021/08/08 07:34:23;;;;;;;3.53;1.30;;;;;;;16.88;67.87;96292.97;3565349;40;20778;-79
2021/08/08 07:36:51;;;;;;;5.90;1.10;;;;;;;16.75;70.22;96290.66;3574380;40;20461;-78
2021/08/08 07:39:19;;;;;;;3.00;1.13;;;;;;;16.96;69.12;96279.81;3570345;40;20569;-78
2021/08/08 07:41:49;;;;;;;4.10;1.33;;;;;;;16.82;70.34;96269.75;3553097;40;20514;-78
2021/08/08 07:44:17;;;;;;;4.20;1.10;;;;;;;17.40;68.08;96282.44;3568466;40;20854;-78
2021/08/08 07:46:45;;;;;;;3.07;1.00;;;;;;;17.38;65.84;96287.88;3573968;40;20881;-79
2021/08/08 07:49:13;;;;;;;3.00;0.83;;;;;;;17.23;64.68;96273.56;3573281;39;20837;-79
2021/08/08 07:51:43;;;;;;;4.20;1.03;;;;;;;17.27;64.26;96274.94;3570569;40;21150;-79
2021/08/08 07:54:11;;;;;;;7.70;1.10;;;;;;;16.86;65.47;96276.44;3573889;40;20599;-78
2021/08/08 07:56:39;;;;;;;8.30;1.20;;;;;;;16.96;66.85;96279.81;3574110;40;20815;-78
2021/08/08 07:59:07;;;;;;;15.13;1.23;;;;;;;16.94;66.43;96287.06;3573672;40;20517;-79
2021/08/08 08:01:35;;;;;;;8.10;1.30;;;;;;;17.38;65.69;96287.88;3566851;40;20785;-78
2021/08/08 08:04:04;;;;;;;2.60;0.77;;;;;;;17.74;64.20;96281.66;3574213;39;20709;-78
2021/08/08 08:06:32;;;;;;;8.73;1.30;;;;;;;17.25;64.56;96297.22;3565149;40;21301;-78
2021/08/08 08:09:02;;;;;;;5.30;1.20;;;;;;;17.75;63.17;96293.91;3579661;39;20523;-79
2021/08/08 08:11:30;;;;;;;4.93;1.00;;;;;;;18.38;62.75;96290.88;3573947;40;20534;-79
2021/08/08 08:13:58;;;;;;;3.00;1.30;;;;;;;18.50;62.52;96301.16;3563338;40;20713;-78
2021/08/08 08:16:26;;;;;;;4.23;1.00;;;;;;;18.68;58.80;96298.38;3562803;40;20462;-77
2021/08/08 08:18:54;;;;;;;1.73;0.90;;;;;;;18.31;58.89;96287.22;3574765;40;20441;-78
2021/08/08 08:21:25;;;;;;;6.47;1.30;;;;;;;17.93;63.39;96291.19;3574381;40;20516;-77
2021/08/08 08:23:54;;;;;;;5.83;0.93;;;;;;;17.85;62.90;96289.34;3576817;39;20853;-79
2021/08/08 08:26:24;;;;;;;3.70;1.57;;;;;;;19.08;58.53;96291.50;3574240;40;20466;-79
2021/08/08 08:28:51;;;;;;;6.60;1.20;;;;;;;18.44;59.49;96292.03;3571690;39;20486;-81
2021/08/08 08:31:20;;;;;;;5.00;1.47;;;;;;;18.00;59.43;96302.00;3569130;40;20752;-78
2021/08/08 08:33:48;;;;;;;3.03;1.00;;;;;;;17.83;58.29;96295.75;3571513;39;20831;-78
2021/08/08 08:36:16;;;;;;;3.07;1.07;;;;;;;17.70;59.17;96299.69;3573424;40;21117;-80
2021/08/08 08:38:44;;;;;;;6.93;1.17;;;;;;;17.90;59.97;96302.94;3571701;40;20481;-80
2021/08/08 08:41:14;;;;;;;5.07;1.30;;;;;;;18.04;58.06;96313.94;3575813;39;20590;-78
2021/08/08 08:43:45;;;;;;;6.23;0.93;;;;;;;17.81;58.99;96308.34;3572419;40;20831;-78
2021/08/08 08:46:15;;;;;;;10.10;1.70;;;;;;;17.80;58.68;96315.47;3574632;40;20671;-78
2021/08/08 08:48:45;;;;;;;4.03;1.00;;;;;;;17.84;59.10;96314.19;3556112;40;20492;-78
2021/08/08 08:51:15;;;;;;;3.13;0.80;;;;;;;17.76;56.93;96314.09;3572350;40;20721;-78
2021/08/08 08:53:45;;;;;;;3.70;0.87;;;;;;;17.63;58.77;96314.53;3571155;40;20450;-80
2021/08/08 08:56:13;;;;;;;4.50;1.73;;;;;;;18.00;57.83;96323.19;3573009;40;20854;-78
2021/08/08 08:58:42;;;;;;;7.50;1.60;;;;;;;18.81;55.90;96320.00;3563700;40;20814;-78
2021/08/08 09:01:12;;;;;;;3.70;1.00;;;;;;;18.31;55.62;96316.38;3570881;40;20822;-79
2021/08/08 09:03:40;;;;;;;3.93;0.87;;;;;;;17.73;56.89;96309.94;3572077;40;20497;-78
2021/08/08 09:06:09;;;;;;;2.73;1.07;;;;;;;18.01;57.80;96303.66;3570490;40;20984;-76
2021/08/08 09:08:37;;;;;;;6.40;1.53;;;;;;;18.56;57.59;96311.97;3573831;40;20481;-78
2021/08/08 09:11:08;;;;;;;5.50;1.63;;;;;;;19.00;55.74;96302.13;3578461;39;20504;-77
2021/08/08 09:13:56;;;;;;;6.43;1.27;;;;;;;19.11;56.37;96307.94;3583311;40;20466;-78
2021/08/08 09:16:29;;;;;;;5.97;0.90;;;;;;;19.17;53.05;96312.56;3570975;40;20474;-77
2021/08/08 09:18:58;;;;;;;3.30;1.00;;;;;;;19.05;54.75;96295.31;3573299;40;20520;-77
2021/08/08 09:21:26;;;;;;;1.80;1.30;;;;;;;19.98;54.35;96314.47;3561881;40;20831;-76
2021/08/08 09:23:59;;;;;;;2.17;1.13;;;;;;;20.00;51.36;96315.94;3570887;40;20489;-76
2021/08/08 09:26:29;;;;;;;3.90;1.00;;;;;;;20.29;49.12;96310.03;3553880;40;20782;-76
2021/08/08 09:29:05;;;;;;;4.37;1.00;;;;;;;20.45;49.97;96317.09;3562832;39;20477;-77
2021/08/08 09:31:42;;;;;;;4.53;1.37;;;;;;;20.54;49.60;96315.19;3571334;40;20841;-75
2021/08/08 09:34:22;;;;;;;3.83;1.40;;;;;;;20.73;48.66;96319.28;3571252;40;20537;-75
2021/08/08 09:36:51;;;;;;;4.70;1.00;;;;;;;19.76;50.21;96316.84;3570668;40;20438;-74
2021/08/08 09:39:30;;;;;;;3.27;0.90;;;;;;;19.31;50.40;96318.22;3571559;39;20470;-74
2021/08/08 09:42:07;;;;;;;2.60;0.80;;;;;;;19.68;48.72;96319.47;3569698;40;20453;-71
2021/08/08 09:44:36;;;;;;;2.40;0.90;;;;;;;19.62;50.41;96325.47;3573393;40;20509;-72
2021/08/08 09:47:06;;;;;;;3.37;1.07;;;;;;;19.65;50.88;96327.78;3572557;40;20473;-72
2021/08/08 09:49:33;;;;;;;3.27;0.80;;;;;;;19.55;51.77;96333.28;3572662;39;20570;-73
2021/08/08 09:52:02;;;;;;;5.40;1.70;;;;;;;19.43;50.85;96327.47;3581140;40;20933;-71
2021/08/08 09:54:36;;;;;;;6.77;1.13;;;;;;;19.39;50.89;96330.66;3573938;39;20449;-73
2021/08/08 09:57:05;;;;;;;2.80;1.13;;;;;;;19.54;50.71;96335.13;3569695;40;20821;-75
2021/08/08 09:59:33;;;;;;;3.30;1.20;;;;;;;20.94;46.64;96323.97;3571497;39;20572;-72
2021/08/08 10:02:02;;;;;;;7.40;1.60;;;;;;;20.89;47.29;96321.00;3572884;40;20450;-72
2021/08/08 10:04:34;;;;;;;4.87;1.30;;;;;;;19.94;48.62;96338.72;3572609;40;20466;-75
2021/08/08 10:07:05;;;;;;;2.60;0.97;;;;;;;19.29;49.38;96336.94;3573948;40;20442;-71
2021/08/08 10:09:33;;;;;;;7.13;1.07;;;;;;;19.13;50.70;96337.78;3563852;40;20465;-71
2021/08/08 10:12:16;;;;;;;1.77;0.80;;;;;;;19.38;49.57;96343.06;3577588;40;20485;-72
2021/08/08 10:14:46;;;;;;;4.83;1.10;;;;;;;19.23;50.85;96334.97;3574864;40;20465;-72
2021/08/08 10:17:19;;;;;;;1.60;1.30;;;;;;;18.96;51.62;96341.41;3573992;40;20483;-73
2021/08/08 10:19:53;;;;;;;5.33;1.23;;;;;;;18.93;51.79;96341.72;3572055;39;20787;-73
2021/08/08 10:22:27;;;;;;;1.60;1.03;;;;;;;18.58;52.78;96343.59;3573581;40;20663;-74
2021/08/08 10:24:57;;;;;;;3.20;1.03;;;;;;;18.55;53.27;96349.25;3575425;39;20524;-73
2021/08/08 10:27:25;;;;;;;6.97;1.50;;;;;;;18.49;54.23;96345.41;3556562;40;20480;-73
2021/08/08 10:29:56;;;;;;;2.17;1.30;;;;;;;18.56;53.12;96345.59;3571043;39;20469;-73
2021/08/08 10:32:25;;;;;;;9.63;1.50;;;;;;;18.45;53.11;96343.25;3571452;40;20711;-73
2021/08/08 10:34:55;;;;;;;4.20;0.97;;;;;;;18.72;52.38;96344.81;3570861;39;20767;-72
2021/08/08 10:37:24;;;;;;;4.03;1.33;;;;;;;19.03;52.28;96344.22;3570015;40;20537;-74
2021/08/08 10:39:53;;;;;;;2.70;1.10;;;;;;;19.41;50.86;96344.59;3575735;40;20464;-73
2021/08/08 10:42:24;;;;;;;5.30;1.30;;;;;;;19.37;50.13;96341.44;3579387;40;20837;-74
2021/08/08 10:44:58;;;;;;;2.70;0.83;;;;;;;19.47;51.31;96343.91;3567898;39;20457;-73
2021/08/08 10:47:27;;;;;;;4.43;1.10;;;;;;;19.54;51.75;96344.88;3561334;40;20541;-72
2021/08/08 10:50:08;;;;;;;2.33;0.90;;;;;;;19.44;51.00;96336.28;3575613;39;21209;-73
2021/08/08 10:52:40;;;;;;;1.73;1.00;;;;;;;19.03;51.50;96337.09;3571806;40;20445;-73
2021/08/08 10:55:09;;;;;;;1.53;0.90;;;;;;;18.73;52.39;96351.78;3575127;39;20565;-72
2021/08/08 10:57:43;;;;;;;3.37;1.20;;;;;;;18.89;52.41;96348.34;3570479;40;20981;-72
2021/08/08 11:00:15;;;;;;;1.77;0.90;;;;;;;19.03;52.72;96358.31;3578906;40;20562;-73
2021/08/08 11:02:44;;;;;;;5.33;1.00;;;;;;;18.86;52.99;96354.00;3572414;40;20918;-72
2021/08/08 11:05:16;;;;;;;2.80;1.00;;;;;;;18.71;53.96;96356.41;3554978;40;20858;-72
2021/08/08 11:07:46;;;;;;;3.87;1.13;;;;;;;19.28;56.45;96358.34;3573143;40;20488;-72
2021/08/08 11:10:26;;;;;;;1.83;0.90;;;;;;;19.63;50.31;96362.47;3572607;40;20460;-72
2021/08/08 11:12:55;;;;;;;3.83;0.90;;;;;;;19.81;50.87;96366.81;3571953;40;20544;-73
2021/08/08 11:15:36;;;;;;;3.00;0.90;;;;;;;20.40;48.40;96363.81;3575330;40;20469;-72
2021/08/08 11:18:04;;;;;;;2.50;0.80;;;;;;;20.23;49.25;96358.56;3577258;40;20434;-73
2021/08/08 11:20:34;;;;;;;4.87;1.10;;;;;;;20.32;46.87;96357.50;3572347;40;20679;-72
2021/08/08 11:23:03;;;;;;;2.50;1.07;;;;;;;20.63;47.91;96348.78;3574734;40;20919;-72
2021/08/08 11:25:37;;;;;;;2.60;0.90;;;;;;;20.10;49.10;96360.94;3572091;39;20538;-75
2021/08/08 11:28:06;;;;;;;5.10;0.97;;;;;;;19.60;54.08;96362.84;3561474;40;20698;-75
2021/08/08 11:30:42;;;;;;;3.00;1.03;;;;;;;18.52;58.62;96370.75;3571787;39;20954;-75
2021/08/08 11:33:11;;;;;;;4.53;1.30;;;;;;;18.45;60.02;96381.19;3574475;40;20759;-74
2021/08/08 11:35:42;;;;;;;6.40;1.20;;;;;;;18.14;59.27;96386.19;3573579;39;20570;-75
2021/08/08 11:38:17;;;;;;;3.40;0.93;;;;;;;17.88;61.49;96416.19;3555653;40;20451;-75
2021/08/08 11:40:46;;;;;;;3.00;0.87;;;;;;;16.97;56.27;96416.34;3571296;40;20461;-74
2021/08/08 11:43:16;;;;;;;3.93;0.80;;;;;;;16.51;54.79;96420.78;3572251;40;20813;-74
2021/08/08 11:45:46;;;;;;;2.10;0.77;;;;;;;16.33;55.92;96434.75;3574255;40;20707;-72